sensor_id;sensor_type;location;lat;lon;timestamp;pressure;altitude;pressure_sealevel;temperature
65290;BMP180;51893;59.754;10.110;2022-10-16T00:01:48;99983.80;;;7.60
65290;BMP180;51893;59.754;10.110;2022-10-16T00:04:16;99983.40;;;7.60
65290;BMP180;51893;59.754;10.110;2022-10-16T00:06:44;99985.60;;;7.60
65290;BMP180;51893;59.754;10.110;2022-10-16T00:09:13;99987.00;;;7.60
65290;BMP180;51893;59.754;10.110;2022-10-16T00:11:41;99994.00;;;7.52
65290;BMP180;51893;59.754;10.110;2022-10-16T00:14:15;99995.60;;;7.50
65290;BMP180;51893;59.754;10.110;2022-10-16T00:16:43;100004.20;;;7.46
65290;BMP180;51893;59.754;10.110;2022-10-16T00:19:12;100005.40;;;7.40
65290;BMP180;51893;59.754;10.110;2022-10-16T00:21:40;100008.00;;;7.40
65290;BMP180;51893;59.754;10.110;2022-10-16T00:24:10;100013.00;;;7.40
65290;BMP180;51893;59.754;10.110;2022-10-16T00:26:40;100008.80;;;7.40
65290;BMP180;51893;59.754;10.110;2022-10-16T00:29:09;100017.80;;;7.44
65290;BMP180;51893;59.754;10.110;2022-10-16T00:31:39;100021.80;;;7.44
65290;BMP180;51893;59.754;10.110;2022-10-16T00:34:07;100024.80;;;7.42
65290;BMP180;51893;59.754;10.110;2022-10-16T00:36:35;100027.20;;;7.40
65290;BMP180;51893;59.754;10.110;2022-10-16T00:39:08;100028.60;;;7.40
65290;BMP180;51893;59.754;10.110;2022-10-16T00:41:36;100025.80;;;7.30
65290;BMP180;51893;59.754;10.110;2022-10-16T00:44:52;100025.80;;;7.30
65290;BMP180;51893;59.754;10.110;2022-10-16T00:47:38;100021.40;;;7.30
65290;BMP180;51893;59.754;10.110;2022-10-16T00:50:22;100015.20;;;7.30
65290;BMP180;51893;59.754;10.110;2022-10-16T00:52:52;100011.20;;;7.30
65290;BMP180;51893;59.754;10.110;2022-10-16T00:55:21;100011.00;;;7.30
65290;BMP180;51893;59.754;10.110;2022-10-16T00:57:51;100013.60;;;7.20
65290;BMP180;51893;59.754;10.110;2022-10-16T01:00:24;100012.40;;;7.10
65290;BMP180;51893;59.754;10.110;2022-10-16T01:02:58;100017.20;;;7.10
65290;BMP180;51893;59.754;10.110;2022-10-16T01:05:41;100016.80;;;7.10
65290;BMP180;51893;59.754;10.110;2022-10-16T01:08:28;100020.20;;;7.10
65290;BMP180;51893;59.754;10.110;2022-10-16T01:11:29;100026.40;;;7.10
65290;BMP180;51893;59.754;10.110;2022-10-16T01:17:30;100032.80;;;6.90
65290;BMP180;51893;59.754;10.110;2022-10-16T01:26:07;100044.40;;;6.90
65290;BMP180;51893;59.754;10.110;2022-10-16T01:28:55;100052.00;;;6.80
65290;BMP180;51893;59.754;10.110;2022-10-16T01:31:29;100051.80;;;6.70
65290;BMP180;51893;59.754;10.110;2022-10-16T01:34:06;100046.80;;;6.60
65290;BMP180;51893;59.754;10.110;2022-10-16T01:36:52;100047.20;;;6.60
65290;BMP180;51893;59.754;10.110;2022-10-16T01:39:45;100046.40;;;6.50
65290;BMP180;51893;59.754;10.110;2022-10-16T01:42:22;100048.60;;;6.54
65290;BMP180;51893;59.754;10.110;2022-10-16T01:44:53;100039.20;;;6.60
65290;BMP180;51893;59.754;10.110;2022-10-16T01:47:25;100045.00;;;6.60
65290;BMP180;51893;59.754;10.110;2022-10-16T01:49:57;100039.00;;;6.66
65290;BMP180;51893;59.754;10.110;2022-10-16T01:52:37;100041.60;;;6.60
65290;BMP180;51893;59.754;10.110;2022-10-16T01:55:10;100048.60;;;6.60
65290;BMP180;51893;59.754;10.110;2022-10-16T01:57:46;100049.80;;;6.60
65290;BMP180;51893;59.754;10.110;2022-10-16T02:00:17;100049.80;;;6.50
65290;BMP180;51893;59.754;10.110;2022-10-16T02:02:50;100051.40;;;6.60
65290;BMP180;51893;59.754;10.110;2022-10-16T02:05:36;100056.40;;;6.60
65290;BMP180;51893;59.754;10.110;2022-10-16T02:08:06;100058.60;;;6.60
65290;BMP180;51893;59.754;10.110;2022-10-16T02:10:36;100057.60;;;6.50
65290;BMP180;51893;59.754;10.110;2022-10-16T02:13:13;100064.60;;;6.60
65290;BMP180;51893;59.754;10.110;2022-10-16T02:15:44;100059.80;;;6.60
65290;BMP180;51893;59.754;10.110;2022-10-16T02:18:13;100058.40;;;6.50
65290;BMP180;51893;59.754;10.110;2022-10-16T02:24:35;100056.80;;;6.40
65290;BMP180;51893;59.754;10.110;2022-10-16T02:30:00;100067.80;;;6.44
65290;BMP180;51893;59.754;10.110;2022-10-16T02:32:32;100069.20;;;6.40
65290;BMP180;51893;59.754;10.110;2022-10-16T02:35:01;100070.40;;;6.36
65290;BMP180;51893;59.754;10.110;2022-10-16T02:37:31;100069.60;;;6.30
65290;BMP180;51893;59.754;10.110;2022-10-16T02:40:01;100077.80;;;6.20
65290;BMP180;51893;59.754;10.110;2022-10-16T02:42:39;100081.00;;;6.10
65290;BMP180;51893;59.754;10.110;2022-10-16T02:45:09;100086.40;;;6.10
65290;BMP180;51893;59.754;10.110;2022-10-16T02:47:40;100094.00;;;6.00
65290;BMP180;51893;59.754;10.110;2022-10-16T02:50:08;100101.40;;;6.02
65290;BMP180;51893;59.754;10.110;2022-10-16T02:52:39;100094.60;;;6.10
65290;BMP180;51893;59.754;10.110;2022-10-16T02:55:09;100102.80;;;6.10
65290;BMP180;51893;59.754;10.110;2022-10-16T02:57:38;100105.00;;;6.10
65290;BMP180;51893;59.754;10.110;2022-10-16T03:00:13;100104.60;;;6.10
65290;BMP180;51893;59.754;10.110;2022-10-16T03:02:41;100107.00;;;6.06
65290;BMP180;51893;59.754;10.110;2022-10-16T03:05:11;100110.60;;;6.00
65290;BMP180;51893;59.754;10.110;2022-10-16T03:07:39;100109.40;;;6.00
65290;BMP180;51893;59.754;10.110;2022-10-16T03:10:09;100111.60;;;6.00
65290;BMP180;51893;59.754;10.110;2022-10-16T03:12:39;100106.80;;;6.00
65290;BMP180;51893;59.754;10.110;2022-10-16T03:15:09;100114.00;;;6.00
65290;BMP180;51893;59.754;10.110;2022-10-16T03:17:41;100113.60;;;6.00
65290;BMP180;51893;59.754;10.110;2022-10-16T03:20:10;100113.60;;;6.00
65290;BMP180;51893;59.754;10.110;2022-10-16T03:22:39;100110.80;;;6.00
65290;BMP180;51893;59.754;10.110;2022-10-16T03:25:08;100112.00;;;6.00
65290;BMP180;51893;59.754;10.110;2022-10-16T03:27:36;100112.00;;;6.00
65290;BMP180;51893;59.754;10.110;2022-10-16T03:30:07;100107.00;;;6.10
65290;BMP180;51893;59.754;10.110;2022-10-16T03:32:35;100102.00;;;6.10
65290;BMP180;51893;59.754;10.110;2022-10-16T03:35:04;100103.80;;;6.18
65290;BMP180;51893;59.754;10.110;2022-10-16T03:37:34;100104.80;;;6.20
65290;BMP180;51893;59.754;10.110;2022-10-16T03:40:03;100104.40;;;6.20
65290;BMP180;51893;59.754;10.110;2022-10-16T03:42:31;100099.80;;;6.20
65290;BMP180;51893;59.754;10.110;2022-10-16T03:45:06;100101.60;;;6.12
65290;BMP180;51893;59.754;10.110;2022-10-16T03:47:34;100108.00;;;6.20
65290;BMP180;51893;59.754;10.110;2022-10-16T03:50:03;100110.40;;;6.20
65290;BMP180;51893;59.754;10.110;2022-10-16T03:52:35;100109.00;;;6.14
65290;BMP180;51893;59.754;10.110;2022-10-16T03:55:06;100112.60;;;6.10
65290;BMP180;51893;59.754;10.110;2022-10-16T03:57:36;100113.60;;;6.10
65290;BMP180;51893;59.754;10.110;2022-10-16T04:00:07;100113.40;;;6.10
65290;BMP180;51893;59.754;10.110;2022-10-16T04:02:35;100118.60;;;6.10
65290;BMP180;51893;59.754;10.110;2022-10-16T04:05:03;100121.60;;;6.10
65290;BMP180;51893;59.754;10.110;2022-10-16T04:07:32;100119.00;;;6.10
65290;BMP180;51893;59.754;10.110;2022-10-16T04:10:04;100118.80;;;6.20
65290;BMP180;51893;59.754;10.110;2022-10-16T04:12:32;100116.20;;;6.20
65290;BMP180;51893;59.754;10.110;2022-10-16T04:15:00;100111.60;;;6.20
65290;BMP180;51893;59.754;10.110;2022-10-16T04:17:32;100103.20;;;6.20
65290;BMP180;51893;59.754;10.110;2022-10-16T04:20:01;100102.20;;;6.10
65290;BMP180;51893;59.754;10.110;2022-10-16T04:22:32;100103.40;;;6.10
65290;BMP180;51893;59.754;10.110;2022-10-16T04:25:01;100105.80;;;6.10
65290;BMP180;51893;59.754;10.110;2022-10-16T04:27:32;100107.40;;;6.10
65290;BMP180;51893;59.754;10.110;2022-10-16T04:30:00;100107.80;;;6.10
65290;BMP180;51893;59.754;10.110;2022-10-16T04:32:28;100109.60;;;6.10
65290;BMP180;51893;59.754;10.110;2022-10-16T04:34:56;100113.00;;;6.10
65290;BMP180;51893;59.754;10.110;2022-10-16T04:37:27;100125.00;;;6.10
65290;BMP180;51893;59.754;10.110;2022-10-16T04:39:55;100123.40;;;6.10
65290;BMP180;51893;59.754;10.110;2022-10-16T04:42:24;100124.80;;;6.10
65290;BMP180;51893;59.754;10.110;2022-10-16T04:44:53;100122.00;;;6.10
65290;BMP180;51893;59.754;10.110;2022-10-16T04:47:20;100123.80;;;6.20
65290;BMP180;51893;59.754;10.110;2022-10-16T04:49:50;100119.00;;;6.20
65290;BMP180;51893;59.754;10.110;2022-10-16T04:52:18;100113.80;;;6.20
65290;BMP180;51893;59.754;10.110;2022-10-16T04:54:47;100125.00;;;6.10
65290;BMP180;51893;59.754;10.110;2022-10-16T04:57:15;100134.40;;;6.00
65290;BMP180;51893;59.754;10.110;2022-10-16T04:59:44;100137.40;;;5.98
65290;BMP180;51893;59.754;10.110;2022-10-16T05:02:12;100136.40;;;5.94
65290;BMP180;51893;59.754;10.110;2022-10-16T05:04:41;100140.20;;;5.92
65290;BMP180;51893;59.754;10.110;2022-10-16T05:07:08;100138.80;;;5.92
65290;BMP180;51893;59.754;10.110;2022-10-16T05:09:37;100135.80;;;6.00
65290;BMP180;51893;59.754;10.110;2022-10-16T05:12:05;100129.40;;;6.00
65290;BMP180;51893;59.754;10.110;2022-10-16T05:14:33;100132.40;;;6.00
65290;BMP180;51893;59.754;10.110;2022-10-16T05:17:00;100134.80;;;6.00
65290;BMP180;51893;59.754;10.110;2022-10-16T05:19:28;100134.40;;;5.98
65290;BMP180;51893;59.754;10.110;2022-10-16T05:21:56;100137.40;;;5.90
65290;BMP180;51893;59.754;10.110;2022-10-16T05:24:24;100137.20;;;5.80
65290;BMP180;51893;59.754;10.110;2022-10-16T05:26:53;100140.40;;;5.80
65290;BMP180;51893;59.754;10.110;2022-10-16T05:29:21;100142.80;;;5.80
65290;BMP180;51893;59.754;10.110;2022-10-16T05:31:53;100148.00;;;5.90
65290;BMP180;51893;59.754;10.110;2022-10-16T05:34:21;100147.40;;;5.90
65290;BMP180;51893;59.754;10.110;2022-10-16T05:36:50;100146.60;;;5.90
65290;BMP180;51893;59.754;10.110;2022-10-16T05:39:20;100133.80;;;5.80
65290;BMP180;51893;59.754;10.110;2022-10-16T05:41:49;100137.20;;;5.80
65290;BMP180;51893;59.754;10.110;2022-10-16T05:44:18;100124.20;;;5.70
65290;BMP180;51893;59.754;10.110;2022-10-16T05:46:49;100121.80;;;5.72
65290;BMP180;51893;59.754;10.110;2022-10-16T05:49:18;100106.40;;;5.70
65290;BMP180;51893;59.754;10.110;2022-10-16T05:51:46;100108.20;;;5.80
65290;BMP180;51893;59.754;10.110;2022-10-16T05:54:14;100111.00;;;5.80
65290;BMP180;51893;59.754;10.110;2022-10-16T05:56:43;100114.00;;;5.80
65290;BMP180;51893;59.754;10.110;2022-10-16T05:59:13;100108.20;;;5.80
65290;BMP180;51893;59.754;10.110;2022-10-16T06:01:42;100100.40;;;5.80
65290;BMP180;51893;59.754;10.110;2022-10-16T06:04:10;100093.80;;;5.74
65290;BMP180;51893;59.754;10.110;2022-10-16T06:06:42;100088.20;;;5.76
65290;BMP180;51893;59.754;10.110;2022-10-16T06:09:10;100093.00;;;5.80
65290;BMP180;51893;59.754;10.110;2022-10-16T06:11:38;100093.60;;;5.80
65290;BMP180;51893;59.754;10.110;2022-10-16T06:14:08;100098.00;;;5.78
65290;BMP180;51893;59.754;10.110;2022-10-16T06:16:37;100102.60;;;5.70
65290;BMP180;51893;59.754;10.110;2022-10-16T06:19:07;100115.00;;;5.60
65290;BMP180;51893;59.754;10.110;2022-10-16T06:21:37;100117.20;;;5.60
65290;BMP180;51893;59.754;10.110;2022-10-16T06:24:05;100126.60;;;5.60
65290;BMP180;51893;59.754;10.110;2022-10-16T06:26:33;100121.60;;;5.54
65290;BMP180;51893;59.754;10.110;2022-10-16T06:29:05;100115.60;;;5.50
65290;BMP180;51893;59.754;10.110;2022-10-16T06:31:34;100118.20;;;5.40
65290;BMP180;51893;59.754;10.110;2022-10-16T06:34:02;100124.80;;;5.40
65290;BMP180;51893;59.754;10.110;2022-10-16T06:36:34;100131.40;;;5.40
65290;BMP180;51893;59.754;10.110;2022-10-16T06:39:03;100140.60;;;5.50
65290;BMP180;51893;59.754;10.110;2022-10-16T06:41:33;100130.40;;;5.50
65290;BMP180;51893;59.754;10.110;2022-10-16T06:44:08;100131.80;;;5.50
65290;BMP180;51893;59.754;10.110;2022-10-16T06:46:36;100122.60;;;5.50
65290;BMP180;51893;59.754;10.110;2022-10-16T06:49:06;100112.20;;;5.50
65290;BMP180;51893;59.754;10.110;2022-10-16T06:51:35;100100.40;;;5.50
65290;BMP180;51893;59.754;10.110;2022-10-16T06:54:10;100086.80;;;5.60
65290;BMP180;51893;59.754;10.110;2022-10-16T06:56:37;100090.40;;;5.70
65290;BMP180;51893;59.754;10.110;2022-10-16T06:59:06;100089.40;;;5.72
65290;BMP180;51893;59.754;10.110;2022-10-16T07:01:36;100099.40;;;5.70
65290;BMP180;51893;59.754;10.110;2022-10-16T07:04:04;100095.60;;;5.70
65290;BMP180;51893;59.754;10.110;2022-10-16T07:06:34;100101.20;;;5.80
65290;BMP180;51893;59.754;10.110;2022-10-16T07:09:08;100111.80;;;5.80
65290;BMP180;51893;59.754;10.110;2022-10-16T07:11:40;100107.80;;;5.80
65290;BMP180;51893;59.754;10.110;2022-10-16T07:14:19;100109.00;;;5.80
65290;BMP180;51893;59.754;10.110;2022-10-16T07:16:48;100107.60;;;5.80
65290;BMP180;51893;59.754;10.110;2022-10-16T07:19:16;100108.20;;;5.80
65290;BMP180;51893;59.754;10.110;2022-10-16T07:21:45;100098.40;;;5.82
65290;BMP180;51893;59.754;10.110;2022-10-16T07:24:16;100094.80;;;5.90
65290;BMP180;51893;59.754;10.110;2022-10-16T07:26:45;100101.20;;;5.90
65290;BMP180;51893;59.754;10.110;2022-10-16T07:29:19;100101.80;;;6.00
65290;BMP180;51893;59.754;10.110;2022-10-16T07:31:48;100108.80;;;6.00
65290;BMP180;51893;59.754;10.110;2022-10-16T07:34:20;100105.00;;;6.10
65290;BMP180;51893;59.754;10.110;2022-10-16T07:36:50;100105.20;;;6.10
65290;BMP180;51893;59.754;10.110;2022-10-16T07:39:21;100103.00;;;6.10
65290;BMP180;51893;59.754;10.110;2022-10-16T07:41:49;100108.20;;;6.08
65290;BMP180;51893;59.754;10.110;2022-10-16T07:44:17;100104.20;;;6.00
65290;BMP180;51893;59.754;10.110;2022-10-16T07:46:46;100094.80;;;6.00
65290;BMP180;51893;59.754;10.110;2022-10-16T07:49:15;100085.40;;;6.00
65290;BMP180;51893;59.754;10.110;2022-10-16T07:51:43;100085.20;;;6.00
65290;BMP180;51893;59.754;10.110;2022-10-16T07:54:11;100081.20;;;6.10
65290;BMP180;51893;59.754;10.110;2022-10-16T07:56:40;100070.00;;;6.10
65290;BMP180;51893;59.754;10.110;2022-10-16T07:59:12;100063.60;;;6.10
65290;BMP180;51893;59.754;10.110;2022-10-16T08:01:41;100078.60;;;6.18
65290;BMP180;51893;59.754;10.110;2022-10-16T08:04:11;100072.60;;;6.20
65290;BMP180;51893;59.754;10.110;2022-10-16T08:06:40;100061.20;;;6.20
65290;BMP180;51893;59.754;10.110;2022-10-16T08:09:09;100057.40;;;6.20
65290;BMP180;51893;59.754;10.110;2022-10-16T08:11:39;100055.20;;;6.20
65290;BMP180;51893;59.754;10.110;2022-10-16T08:14:07;100054.80;;;6.26
65290;BMP180;51893;59.754;10.110;2022-10-16T08:16:35;100053.00;;;6.30
65290;BMP180;51893;59.754;10.110;2022-10-16T08:19:03;100041.20;;;6.40
65290;BMP180;51893;59.754;10.110;2022-10-16T08:21:34;100036.20;;;6.40
65290;BMP180;51893;59.754;10.110;2022-10-16T08:24:03;100036.60;;;6.40
65290;BMP180;51893;59.754;10.110;2022-10-16T08:26:32;100036.20;;;6.50
65290;BMP180;51893;59.754;10.110;2022-10-16T08:29:00;100030.40;;;6.50
65290;BMP180;51893;59.754;10.110;2022-10-16T08:31:29;100031.60;;;6.50
65290;BMP180;51893;59.754;10.110;2022-10-16T08:33:57;100030.80;;;6.60
65290;BMP180;51893;59.754;10.110;2022-10-16T08:36:25;100034.00;;;6.70
65290;BMP180;51893;59.754;10.110;2022-10-16T08:38:54;100031.00;;;6.76
65290;BMP180;51893;59.754;10.110;2022-10-16T08:41:55;100027.20;;;6.80
65290;BMP180;51893;59.754;10.110;2022-10-16T08:47:26;100026.80;;;6.90
65290;BMP180;51893;59.754;10.110;2022-10-16T08:50:14;100016.40;;;6.90
65290;BMP180;51893;59.754;10.110;2022-10-16T08:52:46;100015.60;;;6.90
65290;BMP180;51893;59.754;10.110;2022-10-16T08:55:50;100007.80;;;7.00
65290;BMP180;51893;59.754;10.110;2022-10-16T08:58:29;100001.40;;;7.00
65290;BMP180;51893;59.754;10.110;2022-10-16T09:01:03;100000.60;;;7.10
65290;BMP180;51893;59.754;10.110;2022-10-16T09:03:54;99998.60;;;7.10
65290;BMP180;51893;59.754;10.110;2022-10-16T09:07:09;99994.20;;;7.10
65290;BMP180;51893;59.754;10.110;2022-10-16T09:12:48;100013.00;;;7.10
65290;BMP180;51893;59.754;10.110;2022-10-16T09:18:47;100015.40;;;7.20
65290;BMP180;51893;59.754;10.110;2022-10-16T09:21:26;100007.80;;;7.20
65290;BMP180;51893;59.754;10.110;2022-10-16T09:24:13;100005.00;;;7.10
65290;BMP180;51893;59.754;10.110;2022-10-16T09:26:43;100001.80;;;7.10
65290;BMP180;51893;59.754;10.110;2022-10-16T09:29:14;99998.20;;;7.10
65290;BMP180;51893;59.754;10.110;2022-10-16T09:31:44;99995.00;;;7.10
65290;BMP180;51893;59.754;10.110;2022-10-16T09:34:30;99990.00;;;7.10
65290;BMP180;51893;59.754;10.110;2022-10-16T09:37:12;99982.40;;;7.20
65290;BMP180;51893;59.754;10.110;2022-10-16T09:39:47;99976.40;;;7.30
65290;BMP180;51893;59.754;10.110;2022-10-16T09:42:40;99975.20;;;7.30
65290;BMP180;51893;59.754;10.110;2022-10-16T09:45:22;99966.60;;;7.30
65290;BMP180;51893;59.754;10.110;2022-10-16T09:47:51;99961.80;;;7.30
65290;BMP180;51893;59.754;10.110;2022-10-16T09:50:28;99957.40;;;7.30
65290;BMP180;51893;59.754;10.110;2022-10-16T09:53:14;99947.20;;;7.20
65290;BMP180;51893;59.754;10.110;2022-10-16T09:55:53;99944.20;;;7.30
65290;BMP180;51893;59.754;10.110;2022-10-16T09:58:35;99940.80;;;7.30
65290;BMP180;51893;59.754;10.110;2022-10-16T10:01:04;99938.20;;;7.32
65290;BMP180;51893;59.754;10.110;2022-10-16T10:03:43;99936.80;;;7.40
65290;BMP180;51893;59.754;10.110;2022-10-16T10:06:30;99936.00;;;7.50
65290;BMP180;51893;59.754;10.110;2022-10-16T10:11:48;99913.80;;;7.50
65290;BMP180;51893;59.754;10.110;2022-10-16T10:14:38;99908.80;;;7.50
65290;BMP180;51893;59.754;10.110;2022-10-16T10:22:46;99900.80;;;7.60
65290;BMP180;51893;59.754;10.110;2022-10-16T10:32:11;99900.20;;;7.64
65290;BMP180;51893;59.754;10.110;2022-10-16T10:34:51;99888.00;;;7.70
65290;BMP180;51893;59.754;10.110;2022-10-16T10:46:32;99868.40;;;7.80
65290;BMP180;51893;59.754;10.110;2022-10-16T10:55:25;99865.60;;;7.90
65290;BMP180;51893;59.754;10.110;2022-10-16T11:01:15;99845.00;;;7.90
65290;BMP180;51893;59.754;10.110;2022-10-16T11:06:49;99841.20;;;8.10
65290;BMP180;51893;59.754;10.110;2022-10-16T11:09:27;99841.20;;;8.10
65290;BMP180;51893;59.754;10.110;2022-10-16T11:12:23;99845.80;;;8.18
65290;BMP180;51893;59.754;10.110;2022-10-16T11:15:12;99841.40;;;8.20
65290;BMP180;51893;59.754;10.110;2022-10-16T11:18:15;99842.00;;;8.30
65290;BMP180;51893;59.754;10.110;2022-10-16T11:20:51;99835.80;;;8.30
65290;BMP180;51893;59.754;10.110;2022-10-16T11:23:32;99834.20;;;8.38
65290;BMP180;51893;59.754;10.110;2022-10-16T11:26:06;99835.40;;;8.40
65290;BMP180;51893;59.754;10.110;2022-10-16T11:28:49;99836.40;;;8.40
65290;BMP180;51893;59.754;10.110;2022-10-16T11:31:45;99831.40;;;8.40
65290;BMP180;51893;59.754;10.110;2022-10-16T11:39:33;99809.80;;;8.40
65290;BMP180;51893;59.754;10.110;2022-10-16T11:42:32;99811.00;;;8.40
65290;BMP180;51893;59.754;10.110;2022-10-16T11:45:38;99814.00;;;8.50
65290;BMP180;51893;59.754;10.110;2022-10-16T11:51:29;99788.40;;;8.50
65290;BMP180;51893;59.754;10.110;2022-10-16T11:54:32;99771.20;;;8.60
65290;BMP180;51893;59.754;10.110;2022-10-16T11:57:20;99754.40;;;8.60
65290;BMP180;51893;59.754;10.110;2022-10-16T12:00:25;99748.20;;;8.70
65290;BMP180;51893;59.754;10.110;2022-10-16T12:09:05;99783.00;;;8.90
65290;BMP180;51893;59.754;10.110;2022-10-16T12:11:38;99783.00;;;8.90
65290;BMP180;51893;59.754;10.110;2022-10-16T12:16:57;99778.20;;;8.90
65290;BMP180;51893;59.754;10.110;2022-10-16T12:19:30;99784.40;;;8.90
65290;BMP180;51893;59.754;10.110;2022-10-16T12:22:04;99793.40;;;8.90
65290;BMP180;51893;59.754;10.110;2022-10-16T12:24:51;99802.00;;;8.90
65290;BMP180;51893;59.754;10.110;2022-10-16T12:27:29;99803.20;;;8.90
65290;BMP180;51893;59.754;10.110;2022-10-16T12:30:05;99802.00;;;8.90
65290;BMP180;51893;59.754;10.110;2022-10-16T12:32:39;99791.00;;;8.94
65290;BMP180;51893;59.754;10.110;2022-10-16T12:35:22;99797.00;;;9.00
65290;BMP180;51893;59.754;10.110;2022-10-16T12:37:52;99800.60;;;9.00
65290;BMP180;51893;59.754;10.110;2022-10-16T12:40:31;99799.00;;;9.08
65290;BMP180;51893;59.754;10.110;2022-10-16T12:43:28;99797.20;;;9.10
65290;BMP180;51893;59.754;10.110;2022-10-16T12:48:43;99791.40;;;9.20
65290;BMP180;51893;59.754;10.110;2022-10-16T12:51:35;99792.00;;;9.30
65290;BMP180;51893;59.754;10.110;2022-10-16T12:54:31;99786.60;;;9.32
65290;BMP180;51893;59.754;10.110;2022-10-16T13:07:51;99766.00;;;9.60
65290;BMP180;51893;59.754;10.110;2022-10-16T13:10:46;99786.20;;;9.60
65290;BMP180;51893;59.754;10.110;2022-10-16T13:14:07;99802.60;;;9.50
65290;BMP180;51893;59.754;10.110;2022-10-16T13:29:01;99825.20;;;9.40
65290;BMP180;51893;59.754;10.110;2022-10-16T13:31:31;99829.80;;;9.40
65290;BMP180;51893;59.754;10.110;2022-10-16T13:34:01;99835.20;;;9.30
65290;BMP180;51893;59.754;10.110;2022-10-16T13:36:51;99843.40;;;9.20
65290;BMP180;51893;59.754;10.110;2022-10-16T13:39:28;99847.60;;;9.04
65290;BMP180;51893;59.754;10.110;2022-10-16T13:42:25;99849.00;;;8.90
65290;BMP180;51893;59.754;10.110;2022-10-16T13:44:57;99851.80;;;8.80
65290;BMP180;51893;59.754;10.110;2022-10-16T13:47:29;99837.80;;;8.80
65290;BMP180;51893;59.754;10.110;2022-10-16T13:52:31;99842.00;;;8.80
65290;BMP180;51893;59.754;10.110;2022-10-16T13:55:12;99847.20;;;8.72
65290;BMP180;51893;59.754;10.110;2022-10-16T13:57:45;99846.40;;;8.70
65290;BMP180;51893;59.754;10.110;2022-10-16T14:00:22;99857.80;;;8.70
65290;BMP180;51893;59.754;10.110;2022-10-16T14:03:03;99872.20;;;8.60
65290;BMP180;51893;59.754;10.110;2022-10-16T14:05:44;99883.80;;;8.62
65290;BMP180;51893;59.754;10.110;2022-10-16T14:08:14;99890.40;;;8.60
65290;BMP180;51893;59.754;10.110;2022-10-16T14:10:53;99896.40;;;8.60
65290;BMP180;51893;59.754;10.110;2022-10-16T14:13:39;99900.60;;;8.60
65290;BMP180;51893;59.754;10.110;2022-10-16T14:16:33;99902.00;;;8.62
65290;BMP180;51893;59.754;10.110;2022-10-16T14:19:13;99915.40;;;8.70
65290;BMP180;51893;59.754;10.110;2022-10-16T14:21:42;99912.00;;;8.70
65290;BMP180;51893;59.754;10.110;2022-10-16T14:24:12;99924.20;;;8.80
65290;BMP180;51893;59.754;10.110;2022-10-16T14:26:44;99929.80;;;8.90
65290;BMP180;51893;59.754;10.110;2022-10-16T14:29:19;99938.20;;;9.00
65290;BMP180;51893;59.754;10.110;2022-10-16T14:32:22;99937.00;;;9.10
65290;BMP180;51893;59.754;10.110;2022-10-16T14:34:54;99940.80;;;9.20
65290;BMP180;51893;59.754;10.110;2022-10-16T14:37:29;99950.20;;;9.20
65290;BMP180;51893;59.754;10.110;2022-10-16T14:39:59;99944.60;;;9.20
65290;BMP180;51893;59.754;10.110;2022-10-16T14:42:30;99937.60;;;9.20
65290;BMP180;51893;59.754;10.110;2022-10-16T14:44:59;99940.60;;;9.24
65290;BMP180;51893;59.754;10.110;2022-10-16T14:47:27;99946.00;;;9.30
65290;BMP180;51893;59.754;10.110;2022-10-16T14:49:56;99949.40;;;9.30
65290;BMP180;51893;59.754;10.110;2022-10-16T14:52:29;99958.60;;;9.30
65290;BMP180;51893;59.754;10.110;2022-10-16T14:54:57;99960.60;;;9.34
65290;BMP180;51893;59.754;10.110;2022-10-16T14:57:31;99958.80;;;9.40
65290;BMP180;51893;59.754;10.110;2022-10-16T15:00:23;99957.60;;;9.40
65290;BMP180;51893;59.754;10.110;2022-10-16T15:02:52;99963.00;;;9.40
65290;BMP180;51893;59.754;10.110;2022-10-16T15:05:24;99962.20;;;9.42
65290;BMP180;51893;59.754;10.110;2022-10-16T15:07:54;99959.60;;;9.50
65290;BMP180;51893;59.754;10.110;2022-10-16T15:10:27;99953.20;;;9.44
65290;BMP180;51893;59.754;10.110;2022-10-16T15:12:55;99956.20;;;9.50
65290;BMP180;51893;59.754;10.110;2022-10-16T15:15:38;99964.00;;;9.50
65290;BMP180;51893;59.754;10.110;2022-10-16T15:18:08;99976.60;;;9.50
65290;BMP180;51893;59.754;10.110;2022-10-16T15:20:53;99987.60;;;9.40
65290;BMP180;51893;59.754;10.110;2022-10-16T15:23:22;99986.80;;;9.40
65290;BMP180;51893;59.754;10.110;2022-10-16T15:25:52;99991.00;;;9.48
65290;BMP180;51893;59.754;10.110;2022-10-16T15:28:23;99997.20;;;9.40
65290;BMP180;51893;59.754;10.110;2022-10-16T15:30:56;99998.80;;;9.40
65290;BMP180;51893;59.754;10.110;2022-10-16T15:33:27;100001.40;;;9.44
65290;BMP180;51893;59.754;10.110;2022-10-16T15:36:08;100007.00;;;9.44
65290;BMP180;51893;59.754;10.110;2022-10-16T15:38:37;100018.00;;;9.40
65290;BMP180;51893;59.754;10.110;2022-10-16T15:41:06;100022.00;;;9.40
65290;BMP180;51893;59.754;10.110;2022-10-16T15:43:35;100026.00;;;9.40
65290;BMP180;51893;59.754;10.110;2022-10-16T15:46:06;100026.00;;;9.30
65290;BMP180;51893;59.754;10.110;2022-10-16T15:48:37;100027.40;;;9.34
65290;BMP180;51893;59.754;10.110;2022-10-16T15:51:07;100029.00;;;9.30
65290;BMP180;51893;59.754;10.110;2022-10-16T15:53:35;100032.40;;;9.16
65290;BMP180;51893;59.754;10.110;2022-10-16T15:56:06;100034.40;;;9.10
65290;BMP180;51893;59.754;10.110;2022-10-16T15:58:35;100039.00;;;9.10
65290;BMP180;51893;59.754;10.110;2022-10-16T16:01:04;100047.80;;;9.10
65290;BMP180;51893;59.754;10.110;2022-10-16T16:03:33;100054.60;;;9.04
65290;BMP180;51893;59.754;10.110;2022-10-16T16:06:07;100057.20;;;9.00
65290;BMP180;51893;59.754;10.110;2022-10-16T16:08:36;100049.60;;;8.98
65290;BMP180;51893;59.754;10.110;2022-10-16T16:11:08;100050.40;;;8.80
65290;BMP180;51893;59.754;10.110;2022-10-16T16:13:37;100059.80;;;8.80
65290;BMP180;51893;59.754;10.110;2022-10-16T16:16:14;100061.20;;;8.80
65290;BMP180;51893;59.754;10.110;2022-10-16T16:18:45;100059.80;;;8.80
65290;BMP180;51893;59.754;10.110;2022-10-16T16:21:15;100058.80;;;8.66
65290;BMP180;51893;59.754;10.110;2022-10-16T16:23:43;100066.00;;;8.60
65290;BMP180;51893;59.754;10.110;2022-10-16T16:26:36;100068.80;;;8.52
65290;BMP180;51893;59.754;10.110;2022-10-16T16:29:11;100068.60;;;8.50